Impacts TAF Board INFO
FOR SITUATIONAL AWARENESS. NOT TO BE USED FOR FLIGHT PLANNING PURPOSES.
IDs:

KEWR - Newark Intl, NJ, US

Issued at 2332 UTC 24 Feb 2018
Updated at 0156 UTC 25 Feb 2018
Potential Impact None Slight Moderate High
Time0151Z 25/02Z 25/03Z 25/04Z 25/05Z 25/06Z 25/07Z 25/08Z 25/09Z 25/10Z 25/11Z 25/12Z 25/13Z 25/14Z>>
Type OBS PRVL
  [TEMP]  
PRVL PRVL PRVL PRVL
  [TEMP]  
PRVL
  [TEMP]  
PRVL
  [TEMP]  
PRVL PRVL PRVL PRVL PRVL PRVL
VIS 10 >6 6 6 6 6
  [3]  
6
  [3]  
6
  [3]  
3 3 2 2 2 2
CIG 32 40
  [40]  
50 50 50 50
  [15]  
50
  [15]  
50
  [15]  
8 8 8 8 8 8
Cover OVC OVC
  [OVC]  
OVC OVC OVC OVC
  [BKN]  
OVC
  [BKN]  
OVC
  [BKN]  
OVC OVC OVC OVC OVC OVC
FltCat VFR VFR
  [VFR]  
VFR VFR VFR VFR
  [MVFR]  
VFR
  [MVFR]  
VFR
  [MVFR]  
IFR IFR IFR IFR IFR IFR
WX -- --
  [-SHRA]  
BR BR BR BR
  [BR]  
BR
  [BR]  
BR
  [BR]  
RA BR RA BR RA BR RA BR RA BR RA BR
WDir 10 20
[20]
50 50 50 50
[50]
50
[50]
50
[50]
60 60 60 60 60 60
WSpd 8 6
  [6]  
7 7 7 7
  [7]  
7
  [7]  
7
  [7]  
10 10 14 14 14 14
WGst -- --
  [--]  
-- -- -- --
  [--]  
--
  [--]  
--
  [--]  
17 17 23 23 23 23

Raw TAF
KEWR 242332Z 2500/2606 02006KT P6SM SCT020 OVC040
  TEMPO 2500/2503 -SHRA
  FM250300 05007KT 6SM BR SCT015 OVC050
  TEMPO 2506/2509 3SM BR BKN015
  FM250900 06010G17KT 3SM RA BR OVC008
  FM251100 06014G23KT 2SM RA BR OVC008
  FM251700 03006KT 2SM -RA BR OVC008
  TEMPO 2517/2520 1SM BR OVC004
  FM252100 36003KT 4SM BR BKN015
  FM260400 32004KT P6SM SCT015 BKN250


Raw METAR
KEWR 250151Z 01008KT 10SM BKN032 BKN047 OVC065 08/06 A3020 RMK AO2 RAE17 SLP225 P0000 T00830061
KEWR 250142Z 36007KT 10SM BKN032 OVC065 08/06 A3020 RMK AO2 RAE17 P0000 T00830061
KEWR 250051Z 00000KT 8SM -RA OVC065 08/06 A3019 RMK AO2 RAB33 SLP222 P0000 T00830056
KEWR 242351Z 36005KT 10SM OVC060 08/06 A3018 RMK AO2 SLP220 60004 T00830056 10133 20078 51005
KEWR 242251Z 01008KT 10SM FEW020 OVC060 08/04 A3017 RMK AO2 RAE39 SLP216 P0000 T00830044

METAR Board
Radar Display
Forecast Discussion

FOR SITUATIONAL AWARENESS. NOT TO BE USED FOR FLIGHT PLANNING PURPOSES.